createdAt,value
2023-05-14T00:02:02.377Z,86.4
2023-05-14T00:07:02.348Z,87.1
2023-05-14T00:12:02.430Z,87.5
2023-05-14T00:17:02.358Z,87.8
2023-05-14T00:22:02.384Z,88.1
2023-05-14T00:27:02.360Z,88.2
2023-05-14T00:32:02.368Z,88.2
2023-05-14T00:37:02.368Z,88.0
2023-05-14T00:42:02.394Z,88.3
2023-05-14T00:47:02.473Z,88.7
2023-05-14T00:52:02.401Z,88.8
2023-05-14T00:57:02.410Z,89.1
2023-05-14T01:02:02.382Z,89.4
2023-05-14T01:07:02.395Z,89.9
2023-05-14T01:12:02.409Z,90.3
2023-05-14T01:17:02.400Z,90.5
2023-05-14T01:22:02.413Z,91.2
2023-05-14T01:27:02.400Z,91.6
2023-05-14T01:32:02.443Z,91.6
2023-05-14T01:37:02.404Z,91.7
2023-05-14T01:42:02.430Z,92.2
2023-05-14T01:47:02.407Z,92.5
2023-05-14T01:52:02.430Z,92.8
2023-05-14T01:57:02.421Z,93.1
2023-05-14T02:02:02.478Z,93.4
2023-05-14T02:07:02.432Z,93.7
2023-05-14T02:12:02.512Z,94.0
2023-05-14T02:17:02.430Z,94.3
2023-05-14T02:22:02.450Z,94.7
2023-05-14T02:27:02.437Z,94.9
2023-05-14T02:32:02.443Z,95.6
2023-05-14T02:37:02.447Z,95.7
2023-05-14T02:42:02.474Z,96.0
2023-05-14T02:47:02.472Z,96.4
2023-05-14T02:52:02.486Z,96.6
2023-05-14T02:57:02.452Z,96.8
2023-05-14T03:02:02.536Z,96.8
2023-05-14T03:07:02.462Z,97.1
2023-05-14T03:12:02.544Z,97.5
2023-05-14T03:17:02.565Z,97.8
2023-05-14T03:22:02.494Z,98.0
2023-05-14T03:27:02.458Z,98.2
2023-05-14T03:32:02.501Z,98.4
2023-05-14T03:37:02.477Z,98.3
2023-05-14T03:42:02.521Z,98.5
2023-05-14T03:47:02.527Z,98.6
2023-05-14T03:52:02.507Z,98.6
2023-05-14T03:57:02.517Z,98.9
2023-05-14T04:02:02.520Z,99.0
2023-05-14T04:07:02.521Z,99.1
2023-05-14T04:12:02.572Z,99.4
2023-05-14T04:17:02.505Z,99.3
2023-05-14T04:22:02.522Z,99.4
2023-05-14T04:27:02.502Z,99.3
2023-05-14T04:32:02.534Z,99.0
2023-05-14T04:37:02.504Z,98.8
2023-05-14T04:42:02.640Z,98.5
2023-05-14T04:47:02.499Z,98.0
2023-05-14T04:52:02.543Z,97.4
2023-05-14T04:57:02.522Z,97.5
2023-05-14T05:02:02.536Z,97.3
2023-05-14T05:07:02.525Z,97.0
2023-05-14T05:12:02.656Z,97.0
2023-05-14T05:17:02.545Z,96.6
2023-05-14T05:22:02.559Z,96.1
2023-05-14T05:27:02.556Z,96.4
2023-05-14T05:32:02.557Z,96.0
2023-05-14T05:37:02.553Z,96.0
2023-05-14T05:42:02.778Z,96.2
2023-05-14T05:47:02.694Z,94.3
2023-05-14T05:52:02.571Z,93.5
2023-05-14T05:57:02.574Z,92.4
2023-05-14T06:02:02.632Z,92.1
2023-05-14T06:07:02.572Z,91.3
2023-05-14T06:12:02.649Z,91.3
2023-05-14T06:17:02.709Z,90.4
2023-05-14T06:22:02.607Z,89.3
2023-05-14T06:27:02.572Z,88.4
2023-05-14T06:32:02.602Z,86.8
2023-05-14T06:37:02.582Z,86.9
2023-05-14T06:42:02.674Z,88.1
2023-05-14T06:47:02.595Z,88.8
2023-05-14T06:52:02.622Z,87.6
2023-05-14T06:57:02.598Z,89.4
2023-05-14T07:02:02.592Z,89.6
2023-05-14T07:07:02.599Z,88.5
2023-05-14T07:12:02.693Z,88.7
2023-05-14T07:17:02.685Z,87.8
2023-05-14T07:22:02.640Z,87.2
2023-05-14T07:27:02.614Z,85.8
2023-05-14T07:32:02.625Z,85.4
2023-05-14T07:37:02.618Z,84.3
2023-05-14T07:42:02.661Z,82.5
2023-05-14T07:47:02.700Z,81.6
2023-05-14T07:52:02.670Z,80.0
2023-05-14T07:57:02.640Z,79.1
2023-05-14T08:02:02.649Z,76.7
2023-05-14T08:07:02.632Z,76.9
2023-05-14T08:12:02.786Z,75.2
2023-05-14T08:17:02.675Z,75.7
2023-05-14T08:22:02.661Z,73.1
2023-05-14T08:27:02.657Z,71.9
2023-05-14T08:32:11.624Z,70.5
2023-05-14T08:37:02.663Z,70.0
2023-05-14T08:42:02.713Z,64.3
2023-05-14T08:47:02.668Z,62.4
2023-05-14T08:52:02.692Z,60.3
2023-05-14T08:57:02.678Z,59.7
2023-05-14T09:02:02.741Z,58.2
2023-05-14T09:07:02.794Z,58.3
2023-05-14T09:12:02.702Z,61.1
2023-05-14T09:17:02.688Z,55.7
2023-05-14T09:22:02.704Z,55.5
2023-05-14T09:27:02.687Z,53.0
2023-05-14T09:32:02.750Z,56.1
2023-05-14T09:37:02.733Z,57.4
2023-05-14T09:42:02.752Z,55.5
2023-05-14T09:47:02.725Z,54.6
2023-05-14T09:52:02.770Z,55.2
2023-05-14T09:57:02.709Z,58.7
2023-05-14T10:02:02.712Z,60.7
2023-05-14T10:07:02.718Z,61.3
2023-05-14T10:12:02.751Z,63.0
2023-05-14T10:17:02.753Z,63.5
2023-05-14T10:22:02.755Z,61.9
2023-05-14T10:27:02.751Z,60.8
2023-05-14T10:32:02.727Z,60.1
2023-05-14T10:37:02.757Z,60.2
2023-05-14T10:42:02.763Z,58.2
2023-05-14T10:47:02.796Z,54.9
2023-05-14T10:52:02.750Z,55.5
2023-05-14T10:57:02.743Z,56.6
2023-05-14T11:02:02.785Z,58.3
2023-05-14T11:07:02.767Z,55.6
2023-05-14T11:12:02.790Z,57.8
2023-05-14T11:17:02.790Z,57.5
2023-05-14T11:22:02.799Z,54.5
2023-05-14T11:27:02.763Z,55.5
2023-05-14T11:32:02.859Z,55.3
2023-05-14T11:37:02.788Z,57.6
2023-05-14T11:42:02.844Z,54.5
2023-05-14T11:47:02.779Z,52.0
2023-05-14T11:52:02.807Z,53.9
2023-05-14T11:57:02.789Z,57.9
2023-05-14T12:02:02.803Z,55.6
2023-05-14T12:07:02.781Z,51.2
2023-05-14T12:12:02.915Z,45.7
2023-05-14T12:17:02.797Z,47.8
2023-05-14T12:22:02.834Z,49.1
2023-05-14T12:27:02.813Z,49.4
2023-05-14T12:32:02.802Z,48.0
2023-05-14T12:37:02.810Z,42.6
2023-05-14T12:42:02.899Z,47.0
2023-05-14T12:47:02.861Z,51.2
2023-05-14T12:52:17.388Z,48.5
2023-05-14T12:57:02.820Z,45.8
2023-05-14T13:02:02.836Z,43.0
2023-05-14T13:07:02.834Z,44.9
2023-05-14T13:12:02.862Z,46.1
2023-05-14T13:17:02.880Z,43.7
2023-05-14T13:22:02.861Z,45.3
2023-05-14T13:27:02.846Z,43.5
2023-05-14T13:32:02.856Z,36.6
2023-05-14T13:37:02.866Z,41.6
2023-05-14T13:42:02.996Z,41.6
2023-05-14T13:47:02.852Z,40.9
2023-05-14T13:52:02.880Z,39.6
2023-05-14T13:57:02.859Z,38.0
2023-05-14T14:02:03.023Z,39.1
2023-05-14T14:07:02.863Z,40.2
2023-05-14T14:12:02.913Z,40.2
2023-05-14T14:17:02.873Z,43.7
2023-05-14T14:22:02.966Z,40.9
2023-05-14T14:27:02.883Z,41.8
2023-05-14T14:32:02.971Z,41.6
2023-05-14T14:37:02.908Z,40.8
2023-05-14T14:42:02.959Z,39.0
2023-05-14T14:47:02.894Z,40.8
2023-05-14T14:52:02.915Z,40.4
2023-05-14T14:57:02.924Z,35.4
2023-05-14T15:02:02.905Z,36.4
2023-05-14T15:07:02.926Z,38.8
2023-05-14T15:12:02.938Z,37.8
2023-05-14T15:17:03.011Z,37.1
2023-05-14T15:22:02.948Z,37.5
2023-05-14T15:27:02.928Z,36.7
2023-05-14T15:32:03.109Z,43.5
2023-05-14T15:37:02.931Z,46.2
2023-05-14T15:42:02.954Z,48.9
2023-05-14T15:47:02.940Z,47.3
2023-05-14T15:52:02.955Z,45.0
2023-05-14T15:57:02.935Z,43.9
2023-05-14T16:02:03.106Z,43.1
2023-05-14T16:07:02.950Z,44.4
2023-05-14T16:12:03.040Z,43.7
2023-05-14T16:17:02.957Z,43.0
2023-05-14T16:22:03.015Z,44.0
2023-05-14T16:27:02.961Z,45.9
2023-05-14T16:32:02.974Z,45.4
2023-05-14T16:37:03.242Z,47.3
2023-05-14T16:42:02.992Z,47.4
2023-05-14T16:47:02.970Z,47.9
2023-05-14T16:52:02.989Z,51.3
2023-05-14T16:57:02.963Z,53.3
2023-05-14T17:02:03.076Z,53.7
2023-05-14T17:07:02.972Z,53.7
2023-05-14T17:12:03.026Z,55.4
2023-05-14T17:17:02.973Z,61.1
2023-05-14T17:22:03.004Z,63.3
2023-05-14T17:27:03.009Z,66.4
2023-05-14T17:32:03.023Z,68.1
2023-05-14T17:37:02.993Z,69.4
2023-05-14T17:42:03.074Z,70.8
2023-05-14T17:47:03.036Z,72.1
2023-05-14T17:52:03.028Z,72.7
2023-05-14T17:57:03.019Z,73.4
2023-05-14T18:02:03.018Z,73.9
2023-05-14T18:07:03.024Z,76.1
2023-05-14T18:12:03.037Z,77.0
2023-05-14T18:17:03.335Z,78.2
2023-05-14T18:22:03.059Z,79.2
2023-05-14T18:27:03.071Z,79.5
2023-05-14T18:32:03.052Z,80.1
2023-05-14T18:37:03.045Z,81.3
2023-05-14T18:42:03.053Z,81.1
2023-05-14T18:47:03.082Z,82.1
2023-05-14T18:52:03.071Z,82.0
2023-05-14T18:57:03.057Z,82.9
2023-05-14T19:02:03.115Z,82.9
2023-05-14T19:07:03.065Z,83.2
2023-05-14T19:12:03.063Z,84.0
2023-05-14T19:17:03.101Z,84.2
2023-05-14T19:22:03.122Z,84.6
2023-05-14T19:27:03.087Z,84.4
2023-05-14T19:32:03.140Z,84.7
2023-05-14T19:37:03.080Z,85.2
2023-05-14T19:42:03.087Z,85.6
2023-05-14T19:47:03.132Z,86.0
2023-05-14T19:52:03.109Z,86.5
2023-05-14T19:57:03.091Z,87.2
2023-05-14T20:02:03.129Z,88.0
2023-05-14T20:07:03.096Z,88.2
2023-05-14T20:12:03.105Z,88.7
2023-05-14T20:17:03.207Z,89.4
2023-05-14T20:22:03.140Z,90.0
2023-05-14T20:27:03.119Z,90.2
2023-05-14T20:32:03.129Z,90.3
2023-05-14T20:37:03.129Z,90.5
2023-05-14T20:42:03.121Z,90.5
2023-05-14T20:47:03.149Z,90.8
2023-05-14T20:52:03.136Z,90.7
2023-05-14T20:57:03.134Z,90.6
2023-05-14T21:02:03.237Z,90.6
2023-05-14T21:07:03.134Z,90.6
2023-05-14T21:12:03.145Z,91.0
2023-05-14T21:17:03.166Z,91.3
2023-05-14T21:22:03.168Z,91.2
2023-05-14T21:27:03.144Z,91.5
2023-05-14T21:32:03.242Z,92.2
2023-05-14T21:37:03.158Z,92.0
2023-05-14T21:42:03.153Z,92.0
2023-05-14T21:47:03.253Z,92.1
2023-05-14T21:52:03.215Z,92.5
2023-05-14T21:57:03.159Z,92.7
2023-05-14T22:02:07.281Z,92.8
2023-05-14T22:07:03.197Z,92.9
2023-05-14T22:12:03.178Z,93.3
2023-05-14T22:17:03.306Z,93.5
2023-05-14T22:22:03.190Z,94.0
2023-05-14T22:27:03.191Z,94.3
2023-05-14T22:32:03.190Z,94.5
2023-05-14T22:37:03.203Z,94.5
2023-05-14T22:42:03.199Z,94.8
2023-05-14T22:47:03.327Z,95.5
2023-05-14T22:52:03.250Z,95.4
2023-05-14T22:57:03.206Z,95.8
2023-05-14T23:02:03.281Z,95.9
2023-05-14T23:07:03.210Z,95.7
2023-05-14T23:12:03.224Z,96.1
2023-05-14T23:17:03.248Z,96.8
2023-05-14T23:22:03.244Z,97.1
2023-05-14T23:27:03.225Z,97.3
2023-05-14T23:32:03.269Z,97.3
2023-05-14T23:37:03.222Z,97.4
2023-05-14T23:42:03.227Z,97.6
2023-05-14T23:47:03.319Z,98.0
2023-05-14T23:52:03.257Z,98.1
2023-05-14T23:57:03.226Z,98.1
